Time;durP1;ratioP1;P1;durP2;ratioP2;P2;SDS_P1;SDS_P2;PMS_P1;PMS_P2;Temp;Humidity;BMP_temperature;BMP_pressure;BME280_temperature;BME280_humidity;BME280_pressure;Samples;Min_cycle;Max_cycle;Signal;HPM_P1;HPM_P2
2022/05/13 00:00:11;;;;;;;;;;;;;;;22.38;52.61;100235.06;2086302;28;19917;-41
2022/05/13 00:01:11;;;;;;;;;;;;;;;22.38;52.58;100233.16;2083594;28;19916;-40
2022/05/13 00:02:12;;;;;;;;;;;;;;;22.38;52.81;100244.13;2084898;28;19966;-40
2022/05/13 00:03:13;;;;;;;;;;;;;;;22.39;52.85;100236.75;2085266;28;19920;-40
2022/05/13 00:04:13;;;;;;;;;;;;;;;22.38;52.86;100237.78;2085616;28;19923;-40
2022/05/13 00:05:14;;;;;;;;;;;;;;;22.39;52.72;100234.00;2085425;28;20338;-41
2022/05/13 00:06:14;;;;;;;;;;;;;;;22.38;52.64;100232.31;2085421;28;20318;-40
2022/05/13 00:07:15;;;;;;;;;;;;;;;22.38;52.50;100235.06;2086006;28;19913;-41
2022/05/13 00:08:16;;;;;;;;;;;;;;;22.38;52.82;100233.16;2084219;28;19962;-41
2022/05/13 00:09:16;;;;;;;;;;;;;;;22.38;52.78;100232.31;2079831;28;19974;-40
2022/05/13 00:10:17;;;;;;;;;;;;;;;22.38;52.72;100226.81;2084821;28;19981;-41
2022/05/13 00:11:17;;;;;;;;;;;;;;;22.37;52.60;100231.44;2086768;28;20568;-40
2022/05/13 00:12:18;;;;;;;;;;;;;;;22.37;52.60;100225.09;2084702;28;20129;-40
2022/05/13 00:13:18;;;;;;;;;;;;;;;22.36;52.72;100224.22;2084821;28;20056;-40
2022/05/13 00:14:18;;;;;;;;;;;;;;;22.36;52.78;100226.97;2078462;28;20279;-41
2022/05/13 00:15:20;;;;;;;;;;;;;;;22.36;52.69;100223.38;2084873;28;19926;-41
2022/05/13 00:16:21;;;;;;;;;;;;;;;22.35;52.67;100228.00;2085717;28;20043;-40
2022/05/13 00:17:22;;;;;;;;;;;;;;;22.35;52.80;100235.41;2081210;28;20157;-41
2022/05/13 00:18:22;;;;;;;;;;;;;;;22.35;52.74;100228.00;2085140;28;20019;-40
2022/05/13 00:19:22;;;;;;;;;;;;;;;22.35;52.73;100227.16;2082479;28;19915;-40
2022/05/13 00:20:23;;;;;;;;;;;;;;;22.34;52.82;100226.31;2084487;28;20004;-41
2022/05/13 00:21:24;;;;;;;;;;;;;;;22.33;52.74;100224.56;2079123;28;19909;-41
2022/05/13 00:22:25;;;;;;;;;;;;;;;22.34;52.68;100226.31;2082111;28;19912;-41
2022/05/13 00:23:25;;;;;;;;;;;;;;;22.34;52.46;100219.94;2084172;28;19912;-41
2022/05/13 00:24:26;;;;;;;;;;;;;;;22.33;52.70;100220.97;2085700;28;20500;-41
2022/05/13 00:25:28;;;;;;;;;;;;;;;22.33;52.71;100220.97;2085541;28;19923;-40
2022/05/13 00:26:28;;;;;;;;;;;;;;;22.33;52.61;100226.47;2083935;28;19924;-41
2022/05/13 00:27:29;;;;;;;;;;;;;;;22.33;52.77;100223.72;2086562;28;19920;-41
2022/05/13 00:28:29;;;;;;;;;;;;;;;22.32;52.63;100217.38;2084344;28;19919;-41
2022/05/13 00:29:29;;;;;;;;;;;;;;;22.33;52.48;100226.47;2078584;28;19975;-40
2022/05/13 00:30:33;;;;;;;;;;;;;;;22.34;52.55;100219.94;2081038;28;19913;-40
2022/05/13 00:31:33;;;;;;;;;;;;;;;22.33;52.82;100215.47;2079100;28;20169;-40
2022/05/13 00:32:33;;;;;;;;;;;;;;;22.33;52.56;100220.97;2081707;28;20220;-40
2022/05/13 00:33:34;;;;;;;;;;;;;;;22.33;52.70;100223.72;2084503;28;19916;-40
2022/05/13 00:34:34;;;;;;;;;;;;;;;22.33;52.63;100218.22;2086124;28;20196;-40
2022/05/13 00:35:34;;;;;;;;;;;;;;;22.33;52.59;100218.22;2081824;28;19927;-41
2022/05/13 00:36:35;;;;;;;;;;;;;;;22.34;52.54;100219.94;2085914;28;20612;-40
2022/05/13 00:37:36;;;;;;;;;;;;;;;22.32;52.56;100217.38;2077733;28;19917;-41
2022/05/13 00:38:36;;;;;;;;;;;;;;;22.33;52.64;100212.72;2082643;28;19913;-40
2022/05/13 00:39:36;;;;;;;;;;;;;;;22.32;52.66;100211.00;2076864;28;19916;-41
2022/05/13 00:40:37;;;;;;;;;;;;;;;22.32;52.69;100200.88;2084487;28;20461;-41
2022/05/13 00:41:38;;;;;;;;;;;;;;;22.33;52.58;100207.25;2085430;28;20483;-40
2022/05/13 00:42:38;;;;;;;;;;;;;;;22.33;52.72;100212.72;2085106;28;19943;-41
2022/05/13 00:43:44;;;;;;;;;;;;;;;22.32;52.72;100211.00;2081486;28;19916;-40
2022/05/13 00:44:45;;;;;;;;;;;;;;;22.32;52.63;100205.50;2085669;28;19999;-41
2022/05/13 00:45:46;;;;;;;;;;;;;;;22.32;52.64;100200.88;2078511;28;19913;-41
2022/05/13 00:46:47;;;;;;;;;;;;;;;22.32;52.77;100205.50;2082833;28;19916;-40
2022/05/13 00:47:47;;;;;;;;;;;;;;;22.32;52.69;100203.63;2084999;28;19916;-40
2022/05/13 00:48:48;;;;;;;;;;;;;;;22.32;52.94;100205.50;2082406;28;19924;-40
2022/05/13 00:49:49;;;;;;;;;;;;;;;22.33;52.88;100204.50;2081491;28;19947;-40
2022/05/13 00:50:49;;;;;;;;;;;;;;;22.32;52.93;100205.50;2078791;28;19931;-41
2022/05/13 00:51:49;;;;;;;;;;;;;;;22.31;52.69;100210.13;2085641;28;19916;-41
2022/05/13 00:52:51;;;;;;;;;;;;;;;22.32;52.90;100205.50;2084225;28;19942;-40
2022/05/13 00:53:51;;;;;;;;;;;;;;;22.31;52.91;100203.78;2085826;28;19944;-40
2022/05/13 00:54:53;;;;;;;;;;;;;;;22.31;52.84;100203.78;2085378;28;20442;-41
2022/05/13 00:55:53;;;;;;;;;;;;;;;22.30;52.95;100202.09;2084884;28;20528;-40
2022/05/13 00:56:53;;;;;;;;;;;;;;;22.30;52.99;100207.56;2084904;28;19995;-40
2022/05/13 00:57:55;;;;;;;;;;;;;;;22.30;52.78;100207.56;2085418;28;19988;-41
2022/05/13 00:58:57;;;;;;;;;;;;;;;22.29;52.85;100201.19;2085147;28;20262;-41
2022/05/13 00:59:57;;;;;;;;;;;;;;;22.28;52.94;100204.13;2083020;28;20066;-41
2022/05/13 01:00:57;;;;;;;;;;;;;;;22.29;52.98;100200.34;2086173;28;19924;-40
2022/05/13 01:01:58;;;;;;;;;;;;;;;22.28;52.96;100201.38;2083649;28;19923;-40
2022/05/13 01:02:58;;;;;;;;;;;;;;;22.29;52.88;100200.34;2086584;28;19960;-41
2022/05/13 01:04:01;;;;;;;;;;;;;;;22.28;52.83;100199.50;2085615;28;20051;-40
2022/05/13 01:05:05;;;;;;;;;;;;;;;22.26;52.94;100194.16;2083532;28;20330;-41
2022/05/13 01:06:08;;;;;;;;;;;;;;;22.26;52.89;100194.16;2084106;28;20419;-40
2022/05/13 01:07:10;;;;;;;;;;;;;;;22.28;52.72;100190.41;2086829;28;19959;-40
2022/05/13 01:08:11;;;;;;;;;;;;;;;22.28;52.70;100201.38;2085332;28;19909;-41
2022/05/13 01:09:12;;;;;;;;;;;;;;;22.28;52.94;100193.16;2084721;28;19942;-41
2022/05/13 01:10:15;;;;;;;;;;;;;;;22.28;52.93;100198.66;2085814;28;20326;-41
2022/05/13 01:11:18;;;;;;;;;;;;;;;22.28;52.85;100202.25;2078514;28;19916;-40
2022/05/13 01:12:21;;;;;;;;;;;;;;;22.29;52.80;100200.34;2084338;28;19917;-41
2022/05/13 01:13:23;;;;;;;;;;;;;;;22.28;52.93;100193.16;2078336;28;20160;-40
2022/05/13 01:14:25;;;;;;;;;;;;;;;22.28;52.85;100205.00;2078646;28;19916;-40
2022/05/13 01:15:27;;;;;;;;;;;;;;;22.27;52.78;100195.06;2085954;28;19940;-41
2022/05/13 01:16:28;;;;;;;;;;;;;;;22.28;52.90;100196.75;2085963;28;19987;-40
2022/05/13 01:18:48;;;;;;;;;;;;;;;22.28;52.87;100190.41;2084634;28;19916;-40
2022/05/13 01:19:49;;;;;;;;;;;;;;;22.27;52.90;100181.31;2084913;28;19917;-41
2022/05/13 01:20:50;;;;;;;;;;;;;;;22.26;52.71;100180.44;2083747;28;19927;-40
2022/05/13 01:21:50;;;;;;;;;;;;;;;22.28;52.74;100184.91;2081663;28;19924;-40
2022/05/13 01:22:53;;;;;;;;;;;;;;;22.27;52.76;100178.56;2082232;28;20498;-40
2022/05/13 01:23:54;;;;;;;;;;;;;;;22.27;52.88;100186.81;2082716;28;19923;-40
2022/05/13 01:24:55;;;;;;;;;;;;;;;22.27;52.96;100186.81;2084374;28;19943;-40
2022/05/13 01:26:06;;;;;;;;;;;;;;;22.26;52.90;100182.31;2086258;28;20001;-41
2022/05/13 01:27:07;;;;;;;;;;;;;;;22.27;52.79;100181.31;2085850;28;19962;-41
2022/05/13 01:28:10;;;;;;;;;;;;;;;22.27;52.79;100184.06;2086069;28;19921;-41
2022/05/13 01:29:10;;;;;;;;;;;;;;;22.26;52.80;100185.06;2080559;28;19917;-40
2022/05/13 01:30:12;;;;;;;;;;;;;;;22.25;53.01;100177.88;2085248;28;19952;-40
2022/05/13 01:31:20;;;;;;;;;;;;;;;22.25;52.96;100175.97;2086593;28;19916;-41
2022/05/13 01:32:20;;;;;;;;;;;;;;;22.25;53.00;100178.72;2082108;28;19916;-40
2022/05/13 01:33:21;;;;;;;;;;;;;;;22.24;53.08;100177.03;2083764;28;20280;-41
2022/05/13 01:34:21;;;;;;;;;;;;;;;22.22;52.99;100179.06;2080919;28;19917;-41
2022/05/13 01:35:22;;;;;;;;;;;;;;;22.23;52.89;100180.78;2084242;28;19962;-41
2022/05/13 01:36:22;;;;;;;;;;;;;;;22.22;52.83;100179.06;2085491;28;19923;-41
2022/05/13 01:37:23;;;;;;;;;;;;;;;22.23;52.96;100178.03;2086129;28;19934;-41
2022/05/13 01:38:25;;;;;;;;;;;;;;;22.23;53.07;100185.41;2084372;28;19944;-41
2022/05/13 01:39:25;;;;;;;;;;;;;;;22.23;52.85;100180.78;2085867;28;20353;-41
2022/05/13 01:40:25;;;;;;;;;;;;;;;22.23;52.88;100180.78;2079111;28;19939;-40
2022/05/13 01:41:28;;;;;;;;;;;;;;;22.22;52.92;100173.59;2083732;28;19947;-40
2022/05/13 01:42:29;;;;;;;;;;;;;;;22.22;52.91;100179.06;2086290;28;19920;-41
2022/05/13 01:43:30;;;;;;;;;;;;;;;22.23;53.08;100174.44;2080943;28;19956;-41
2022/05/13 01:44:30;;;;;;;;;;;;;;;22.23;52.82;100179.94;2084493;28;19934;-40
2022/05/13 01:45:31;;;;;;;;;;;;;;;22.23;52.81;100180.78;2085795;28;19921;-40
2022/05/13 01:46:31;;;;;;;;;;;;;;;22.22;52.84;100184.56;2083624;28;19998;-41
2022/05/13 01:47:31;;;;;;;;;;;;;;;22.23;52.97;100185.41;2085770;28;20793;-42
2022/05/13 01:48:32;;;;;;;;;;;;;;;22.23;53.00;100180.78;2084902;28;19923;-41
2022/05/13 01:49:32;;;;;;;;;;;;;;;22.22;52.82;100187.31;2085173;28;20174;-40
2022/05/13 01:50:33;;;;;;;;;;;;;;;22.22;53.07;100184.56;2084588;28;19922;-40
2022/05/13 01:51:33;;;;;;;;;;;;;;;22.23;53.06;100186.28;2084136;28;19974;-41
2022/05/13 01:52:34;;;;;;;;;;;;;;;22.23;52.91;100185.41;2086167;28;19975;-41
2022/05/13 01:53:34;;;;;;;;;;;;;;;22.23;52.90;100186.28;2084518;28;19923;-41
2022/05/13 01:54:34;;;;;;;;;;;;;;;22.22;53.04;100183.69;2084278;28;19921;-41
2022/05/13 01:55:35;;;;;;;;;;;;;;;22.24;52.91;100189.88;2080494;28;19919;-41
2022/05/13 01:56:35;;;;;;;;;;;;;;;22.22;52.99;100184.56;2084390;28;19916;-40
2022/05/13 01:57:36;;;;;;;;;;;;;;;22.22;53.23;100190.06;2085148;28;19912;-40
2022/05/13 01:58:36;;;;;;;;;;;;;;;22.22;52.95;100195.56;2082435;28;19911;-41
2022/05/13 01:59:36;;;;;;;;;;;;;;;22.22;52.93;100189.16;2080390;28;19926;-40
2022/05/13 02:00:37;;;;;;;;;;;;;;;22.22;53.24;100195.56;2082900;28;19918;-40
2022/05/13 02:01:37;;;;;;;;;;;;;;;22.22;53.02;100190.06;2086553;28;19955;-41
2022/05/13 02:03:56;;;;;;;;;;;;;;;22.22;53.03;100183.69;2084400;28;19913;-41
2022/05/13 02:04:57;;;;;;;;;;;;;;;22.22;53.03;100184.56;2083019;28;19924;-40
2022/05/13 02:05:57;;;;;;;;;;;;;;;22.21;52.95;100185.56;2084340;28;19967;-40
2022/05/13 02:06:58;;;;;;;;;;;;;;;22.21;52.92;100182.84;2086914;28;19916;-40
2022/05/13 02:07:58;;;;;;;;;;;;;;;22.21;53.12;100182.84;2082513;28;20135;-40
2022/05/13 02:08:58;;;;;;;;;;;;;;;22.21;53.18;100184.72;2084331;28;19938;-40
2022/05/13 02:09:59;;;;;;;;;;;;;;;22.20;52.92;100191.25;2085953;28;19913;-41
2022/05/13 02:10:59;;;;;;;;;;;;;;;22.20;53.16;100185.75;2082202;28;20395;-40
2022/05/13 02:11:59;;;;;;;;;;;;;;;22.19;53.17;100184.84;2084902;28;19938;-40
2022/05/13 02:13:00;;;;;;;;;;;;;;;22.19;53.00;100187.59;2086838;28;19912;-40
2022/05/13 02:14:00;;;;;;;;;;;;;;;22.19;53.12;100190.34;2084651;28;19923;-40
2022/05/13 02:15:01;;;;;;;;;;;;;;;22.19;53.04;100189.47;2086537;28;19909;-41
2022/05/13 02:16:03;;;;;;;;;;;;;;;22.19;53.21;100193.09;2083888;28;20315;-41
2022/05/13 02:17:03;;;;;;;;;;;;;;;22.19;52.97;100190.34;2084097;28;19916;-40
2022/05/13 02:18:04;;;;;;;;;;;;;;;22.18;53.20;100196.88;2078907;28;19955;-40
2022/05/13 02:19:04;;;;;;;;;;;;;;;22.19;53.06;100195.81;2083004;28;19946;-41
2022/05/13 02:20:05;;;;;;;;;;;;;;;22.19;52.97;100190.34;2084105;28;20170;-56
2022/05/13 02:21:06;;;;;;;;;;;;;;;22.18;53.09;100196.88;2084791;28;19923;-40
2022/05/13 02:22:06;;;;;;;;;;;;;;;22.18;53.14;100191.38;2084592;28;19923;-41
2022/05/13 02:23:07;;;;;;;;;;;;;;;22.19;53.25;100198.56;2084327;28;19952;-40
2022/05/13 02:24:07;;;;;;;;;;;;;;;22.19;53.06;100190.34;2083572;28;19948;-41
2022/05/13 02:25:08;;;;;;;;;;;;;;;22.19;53.21;100195.81;2081671;28;19928;-40
2022/05/13 02:26:10;;;;;;;;;;;;;;;22.19;53.18;100189.47;2084574;28;20326;-40
2022/05/13 02:27:10;;;;;;;;;;;;;;;22.19;53.18;100190.34;2084350;28;19928;-40
2022/05/13 02:28:11;;;;;;;;;;;;;;;22.19;53.18;100201.31;2082896;28;20242;-40
2022/05/13 02:29:11;;;;;;;;;;;;;;;22.19;53.23;100195.81;2083575;28;20058;-40
2022/05/13 02:30:12;;;;;;;;;;;;;;;22.18;53.08;100191.38;2080397;28;20236;-41
2022/05/13 02:31:12;;;;;;;;;;;;;;;22.19;53.27;100192.22;2083651;28;19960;-41
2022/05/13 02:32:12;;;;;;;;;;;;;;;22.19;53.25;100198.56;2101188;28;19966;-40
2022/05/13 02:33:13;;;;;;;;;;;;;;;22.18;53.11;100196.88;2097481;28;20557;-40
2022/05/13 02:34:13;;;;;;;;;;;;;;;22.19;53.12;100194.97;2083858;28;19920;-41
2022/05/13 02:35:13;;;;;;;;;;;;;;;22.19;53.16;100186.75;2082750;28;19924;-40
2022/05/13 02:36:14;;;;;;;;;;;;;;;22.18;53.28;100199.63;2087349;28;19913;-41
2022/05/13 02:37:15;;;;;;;;;;;;;;;22.19;53.23;100190.34;2084585;28;19920;-41
2022/05/13 02:38:15;;;;;;;;;;;;;;;22.18;53.20;100194.13;2080088;28;19915;-40
2022/05/13 02:39:16;;;;;;;;;;;;;;;22.18;53.09;100193.28;2086311;28;20294;-40
2022/05/13 02:40:17;;;;;;;;;;;;;;;22.18;53.17;100194.13;2087313;28;19999;-40
2022/05/13 02:41:17;;;;;;;;;;;;;;;22.19;53.05;100197.72;2084207;28;20011;-40
2022/05/13 02:42:17;;;;;;;;;;;;;;;22.18;53.23;100198.75;2083580;28;19916;-40
2022/05/13 02:43:17;;;;;;;;;;;;;;;22.18;53.25;100196.00;2080339;28;19968;-41
2022/05/13 02:44:18;;;;;;;;;;;;;;;22.18;53.28;100205.09;2084269;28;20003;-41
2022/05/13 02:45:19;;;;;;;;;;;;;;;22.17;53.22;100197.91;2084166;28;19940;-41
2022/05/13 02:46:22;;;;;;;;;;;;;;;22.17;53.21;100202.50;2083876;28;19926;-40
2022/05/13 02:47:22;;;;;;;;;;;;;;;22.17;53.02;100197.91;2081526;28;19995;-41
2022/05/13 02:48:23;;;;;;;;;;;;;;;22.16;53.37;100196.16;2083941;28;19917;-41
2022/05/13 02:49:23;;;;;;;;;;;;;;;22.17;53.31;100197.03;2085502;28;19952;-40
2022/05/13 02:50:25;;;;;;;;;;;;;;;22.16;53.17;100190.69;2083271;28;20203;-40
2022/05/13 02:51:26;;;;;;;;;;;;;;;22.16;53.20;100190.69;2084042;28;19911;-40
2022/05/13 02:52:26;;;;;;;;;;;;;;;22.14;53.23;100192.72;2084468;28;19916;-40
2022/05/13 02:53:27;;;;;;;;;;;;;;;22.14;53.21;100195.47;2086080;28;19908;-40
2022/05/13 02:54:27;;;;;;;;;;;;;;;22.15;53.24;100194.47;2083966;28;19985;-41
2022/05/13 02:55:27;;;;;;;;;;;;;;;22.14;53.38;100195.47;2083888;28;19908;-40
2022/05/13 02:56:28;;;;;;;;;;;;;;;22.15;53.48;100194.47;2083583;28;20551;-40
2022/05/13 02:57:28;;;;;;;;;;;;;;;22.14;53.17;100198.22;2085480;28;19913;-40
2022/05/13 02:58:28;;;;;;;;;;;;;;;22.15;53.35;100193.63;2084724;28;20551;-41
2022/05/13 02:59:29;;;;;;;;;;;;;;;22.14;53.34;100195.47;2081749;28;19908;-41
2022/05/13 03:00:29;;;;;;;;;;;;;;;22.15;53.30;100193.63;2081683;28;20181;-42
2022/05/13 03:01:32;;;;;;;;;;;;;;;22.15;53.23;100193.63;2083792;28;19923;-40
2022/05/13 03:02:33;;;;;;;;;;;;;;;22.15;53.23;100190.88;2084057;28;20323;-41
2022/05/13 03:03:34;;;;;;;;;;;;;;;22.14;53.26;100189.97;2084885;28;19916;-40
2022/05/13 03:04:34;;;;;;;;;;;;;;;22.15;53.38;100199.09;2081250;28;20504;-40
2022/05/13 03:05:34;;;;;;;;;;;;;;;22.14;53.29;100189.13;2084068;28;19920;-40
2022/05/13 03:06:35;;;;;;;;;;;;;;;22.14;53.34;100198.22;2079586;28;20019;-40
2022/05/13 03:07:36;;;;;;;;;;;;;;;22.15;53.20;100199.97;2081062;28;19917;-40
2022/05/13 03:08:36;;;;;;;;;;;;;;;22.15;53.37;100199.97;2081360;28;20305;-41
2022/05/13 03:09:36;;;;;;;;;;;;;;;22.14;53.44;100198.22;2080423;28;19981;-41
2022/05/13 03:10:38;;;;;;;;;;;;;;;22.15;53.54;100194.47;2083653;28;19948;-40
2022/05/13 03:11:38;;;;;;;;;;;;;;;22.15;53.33;100188.13;2082239;28;19916;-40
2022/05/13 03:12:39;;;;;;;;;;;;;;;22.15;53.22;100199.97;2084582;28;19908;-40
2022/05/13 03:13:39;;;;;;;;;;;;;;;22.15;53.27;100199.97;2082472;28;19921;-41
2022/05/13 03:14:40;;;;;;;;;;;;;;;22.14;53.36;100195.47;2084533;28;20120;-41
2022/05/13 03:15:40;;;;;;;;;;;;;;;22.14;53.24;100192.72;2079532;28;20258;-41
2022/05/13 03:16:41;;;;;;;;;;;;;;;22.14;53.28;100195.47;2081678;28;19908;-41
2022/05/13 03:17:41;;;;;;;;;;;;;;;22.14;53.45;100191.88;2086181;28;19912;-40
2022/05/13 03:18:41;;;;;;;;;;;;;;;22.15;53.51;100194.47;2082996;28;19908;-41
2022/05/13 03:19:42;;;;;;;;;;;;;;;22.14;53.39;100192.72;2084691;28;19920;-41
2022/05/13 03:20:42;;;;;;;;;;;;;;;22.14;53.44;100189.97;2084857;28;19916;-40
2022/05/13 03:21:42;;;;;;;;;;;;;;;22.13;53.48;100191.03;2080220;28;19909;-41
2022/05/13 03:22:46;;;;;;;;;;;;;;;22.14;53.54;100187.25;2086998;28;20051;-40
2022/05/13 03:23:47;;;;;;;;;;;;;;;22.12;53.47;100189.31;2087096;28;19908;-41
2022/05/13 03:24:47;;;;;;;;;;;;;;;22.13;53.45;100187.44;2084650;28;20338;-40
2022/05/13 03:25:47;;;;;;;;;;;;;;;22.12;53.41;100189.31;2086287;28;19924;-40
2022/05/13 03:26:48;;;;;;;;;;;;;;;22.12;53.63;100183.84;2084649;28;19923;-41
2022/05/13 03:27:48;;;;;;;;;;;;;;;22.12;53.46;100185.69;2085970;28;19917;-40
2022/05/13 03:28:49;;;;;;;;;;;;;;;22.11;53.51;100182.09;2084721;28;19955;-40
2022/05/13 03:29:49;;;;;;;;;;;;;;;22.11;53.39;100182.09;2083944;28;19917;-41
2022/05/13 03:30:50;;;;;;;;;;;;;;;22.11;53.52;100171.09;2087014;28;20008;-40
2022/05/13 03:31:50;;;;;;;;;;;;;;;22.11;53.65;100176.59;2084203;28;20014;-41
2022/05/13 03:32:51;;;;;;;;;;;;;;;22.11;53.55;100182.09;2085796;28;20369;-40
2022/05/13 03:33:51;;;;;;;;;;;;;;;22.11;53.63;100181.25;2084884;28;19916;-40
2022/05/13 03:34:52;;;;;;;;;;;;;;;22.11;53.50;100176.59;2084922;28;20338;-41
2022/05/13 03:35:52;;;;;;;;;;;;;;;22.10;53.63;100172.16;2079528;28;20238;-40
2022/05/13 03:36:54;;;;;;;;;;;;;;;22.11;53.25;100178.50;2084638;28;19915;-41
2022/05/13 03:37:54;;;;;;;;;;;;;;;22.10;53.60;100174.91;2085877;28;20512;-40
2022/05/13 03:38:55;;;;;;;;;;;;;;;22.11;53.39;100171.09;2078947;28;19916;-40
2022/05/13 03:39:55;;;;;;;;;;;;;;;22.11;53.63;100178.50;2082084;28;19917;-40
2022/05/13 03:40:56;;;;;;;;;;;;;;;22.11;53.46;100170.25;2083520;28;19928;-40
2022/05/13 03:41:56;;;;;;;;;;;;;;;22.10;53.71;100169.41;2085928;28;19962;-41
2022/05/13 03:42:57;;;;;;;;;;;;;;;22.10;53.49;100169.41;2087052;28;20169;-41
2022/05/13 03:43:57;;;;;;;;;;;;;;;22.11;53.66;100171.09;2087006;28;19916;-40
2022/05/13 03:44:58;;;;;;;;;;;;;;;22.11;53.54;100173.00;2080665;28;19924;-41
2022/05/13 03:45:58;;;;;;;;;;;;;;;22.12;53.78;100167.34;2084637;28;20731;-41
2022/05/13 03:46:59;;;;;;;;;;;;;;;22.11;53.66;100165.63;2086156;28;19916;-41
2022/05/13 03:48:00;;;;;;;;;;;;;;;22.12;53.55;100171.97;2085362;28;19921;-42
2022/05/13 03:49:01;;;;;;;;;;;;;;;22.11;53.51;100168.38;2078832;28;19935;-41
2022/05/13 03:50:03;;;;;;;;;;;;;;;22.11;53.54;100171.09;2081969;28;19925;-41
2022/05/13 03:51:03;;;;;;;;;;;;;;;22.11;53.52;100171.09;2082016;28;20313;-41
2022/05/13 03:52:03;;;;;;;;;;;;;;;22.11;53.55;100176.59;2085541;28;19947;-41
2022/05/13 03:53:04;;;;;;;;;;;;;;;22.11;53.58;100179.34;2084668;28;19916;-41
2022/05/13 03:54:04;;;;;;;;;;;;;;;22.10;53.42;100180.38;2085624;28;19916;-41
2022/05/13 03:55:06;;;;;;;;;;;;;;;22.10;53.64;100185.88;2081340;28;20537;-41
2022/05/13 03:56:07;;;;;;;;;;;;;;;22.11;53.56;100182.09;2083404;28;19916;-41
2022/05/13 03:57:08;;;;;;;;;;;;;;;22.10;53.66;100177.63;2087454;28;19971;-41
2022/05/13 03:58:08;;;;;;;;;;;;;;;22.10;53.75;100180.38;2084413;28;19923;-41
2022/05/13 03:59:08;;;;;;;;;;;;;;;22.10;53.79;100185.88;2085575;28;19916;-41
2022/05/13 04:00:09;;;;;;;;;;;;;;;22.10;53.87;100183.13;2085815;28;20192;-41
2022/05/13 04:01:10;;;;;;;;;;;;;;;22.10;53.60;100179.50;2084078;28;19908;-41
2022/05/13 04:02:10;;;;;;;;;;;;;;;22.09;53.49;100184.13;2085691;28;19944;-41
2022/05/13 04:03:11;;;;;;;;;;;;;;;22.09;53.96;100184.13;2079866;28;20005;-41
2022/05/13 04:04:11;;;;;;;;;;;;;;;22.10;53.82;100185.00;2080569;28;19911;-41
2022/05/13 04:09:10;;;;;;;;;;;;;;;22.08;53.65;100182.44;2085477;28;19920;-41
2022/05/13 04:10:10;;;;;;;;;;;;;;;22.08;53.73;100182.44;2087418;28;19904;-41
2022/05/13 04:11:11;;;;;;;;;;;;;;;22.07;53.75;100175.22;2084016;28;19943;-41
2022/05/13 04:16:08;;;;;;;;;;;;;;;22.07;53.99;100183.44;2080137;28;19928;-40
2022/05/13 04:17:08;;;;;;;;;;;;;;;22.07;53.93;100180.69;2081882;28;20338;-41
2022/05/13 04:18:08;;;;;;;;;;;;;;;22.08;53.94;100192.56;2081718;28;19917;-41
2022/05/13 04:19:09;;;;;;;;;;;;;;;22.07;53.91;100183.44;2079532;28;20335;-40
2022/05/13 04:20:10;;;;;;;;;;;;;;;22.07;53.92;100177.94;2083015;28;19917;-40
2022/05/13 04:21:12;;;;;;;;;;;;;;;22.08;53.90;100182.44;2085340;28;19941;-40
2022/05/13 04:22:13;;;;;;;;;;;;;;;22.07;53.71;100180.69;2084718;28;19917;-40
2022/05/13 04:23:14;;;;;;;;;;;;;;;22.07;53.77;100183.44;2083322;28;19927;-40
2022/05/13 04:24:17;;;;;;;;;;;;;;;22.07;53.77;100180.69;2087298;28;20015;-40
2022/05/13 04:25:18;;;;;;;;;;;;;;;22.07;53.89;100177.94;2083774;28;19917;-40
2022/05/13 04:26:18;;;;;;;;;;;;;;;22.07;53.73;100177.94;2085922;28;19996;-40
2022/05/13 04:27:19;;;;;;;;;;;;;;;22.07;53.71;100185.34;2085118;28;19948;-40
2022/05/13 04:28:19;;;;;;;;;;;;;;;22.07;53.65;100183.44;2082786;28;19912;-40
2022/05/13 04:29:19;;;;;;;;;;;;;;;22.06;53.83;100179.00;2086454;28;19962;-40
2022/05/13 04:30:20;;;;;;;;;;;;;;;22.07;53.68;100175.22;2081051;28;19909;-40
2022/05/13 04:31:21;;;;;;;;;;;;;;;22.06;53.70;100181.75;2082481;28;19929;-41
2022/05/13 04:32:22;;;;;;;;;;;;;;;22.07;53.77;100183.44;2085464;28;20212;-40
2022/05/13 04:33:22;;;;;;;;;;;;;;;22.06;53.85;100181.75;2083286;28;19917;-41
2022/05/13 04:34:22;;;;;;;;;;;;;;;22.07;53.66;100186.19;2085835;28;19996;-40
2022/05/13 04:35:23;;;;;;;;;;;;;;;22.07;53.73;100186.19;2084775;28;19934;-41
2022/05/13 04:36:24;;;;;;;;;;;;;;;22.07;53.82;100186.19;2085808;28;19916;-40
2022/05/13 04:37:25;;;;;;;;;;;;;;;22.07;53.87;100186.19;2079107;28;19913;-41
2022/05/13 04:38:25;;;;;;;;;;;;;;;22.07;53.92;100190.81;2081698;28;19920;-40
2022/05/13 04:39:25;;;;;;;;;;;;;;;22.06;53.95;100195.47;2079070;28;19913;-40
2022/05/13 04:40:26;;;;;;;;;;;;;;;22.06;53.67;100195.47;2083980;28;19912;-40
2022/05/13 04:42:49;;;;;;;;;;;;;;;22.05;53.94;100193.75;2084390;28;20380;-41
2022/05/13 04:43:49;;;;;;;;;;;;;;;22.04;53.81;100192.88;2083423;28;19958;-41
2022/05/13 04:44:49;;;;;;;;;;;;;;;22.05;53.87;100196.50;2079818;28;19920;-41
2022/05/13 04:45:50;;;;;;;;;;;;;;;22.04;53.84;100192.88;2086736;28;19912;-40
2022/05/13 04:46:50;;;;;;;;;;;;;;;22.04;53.87;100192.03;2084944;28;19970;-41
2022/05/13 04:49:13;;;;;;;;;;;;;;;22.04;53.87;100192.88;2080201;28;19908;-40
2022/05/13 04:50:14;;;;;;;;;;;;;;;22.03;53.93;100193.06;2081230;28;19921;-41
2022/05/13 04:51:17;;;;;;;;;;;;;;;22.03;54.05;100196.66;2078779;28;19921;-40
2022/05/13 04:52:17;;;;;;;;;;;;;;;22.04;53.89;100194.75;2086896;28;19919;-40
2022/05/13 04:53:22;;;;;;;;;;;;;;;22.03;53.94;100198.56;2084578;28;19924;-40
2022/05/13 04:54:22;;;;;;;;;;;;;;;22.03;53.86;100201.28;2085155;28;19912;-40
2022/05/13 04:55:24;;;;;;;;;;;;;;;22.03;53.85;100198.56;2081265;28;19924;-40
2022/05/13 04:56:26;;;;;;;;;;;;;;;22.04;53.92;100197.50;2081135;28;20063;-40
2022/05/13 04:57:26;;;;;;;;;;;;;;;22.04;54.02;100200.25;2085896;28;20273;-40
2022/05/13 04:58:27;;;;;;;;;;;;;;;22.04;54.09;100203.00;2082806;28;19956;-41
2022/05/13 04:59:27;;;;;;;;;;;;;;;22.04;54.10;100192.88;2083127;28;19973;-41
2022/05/13 05:00:28;;;;;;;;;;;;;;;22.04;54.04;100206.59;2084962;28;19922;-41
2022/05/13 05:01:28;;;;;;;;;;;;;;;22.04;54.13;100203.00;2082143;28;20307;-40
2022/05/13 05:02:28;;;;;;;;;;;;;;;22.04;53.92;100206.59;2082655;28;20557;-41
2022/05/13 05:03:30;;;;;;;;;;;;;;;22.04;54.07;100203.00;2080572;28;19923;-41
2022/05/13 05:04:30;;;;;;;;;;;;;;;22.04;53.96;100208.50;2086267;28;19974;-40
2022/05/13 05:05:30;;;;;;;;;;;;;;;22.04;54.05;100216.72;2085814;28;20339;-41
2022/05/13 05:06:31;;;;;;;;;;;;;;;22.04;54.09;100209.34;2085504;28;19925;-40
2022/05/13 05:07:31;;;;;;;;;;;;;;;22.03;54.12;100209.53;2084299;28;19916;-41
2022/05/13 05:08:31;;;;;;;;;;;;;;;22.04;54.03;100209.34;2084666;28;19953;-41
2022/05/13 05:09:31;;;;;;;;;;;;;;;22.04;53.94;100213.97;2085290;28;19944;-40
2022/05/13 05:10:32;;;;;;;;;;;;;;;22.04;54.15;100211.22;2084738;28;19912;-40
2022/05/13 05:11:32;;;;;;;;;;;;;;;22.03;54.09;100215.03;2086466;28;19927;-40
2022/05/13 05:12:32;;;;;;;;;;;;;;;22.04;54.07;100216.72;2084957;28;20316;-40
2022/05/13 05:13:35;;;;;;;;;;;;;;;22.03;54.05;100212.28;2084720;28;20069;-40
2022/05/13 05:14:35;;;;;;;;;;;;;;;22.03;54.04;100217.75;2086074;28;20828;-41
2022/05/13 05:15:38;;;;;;;;;;;;;;;22.01;53.91;100219.81;2082599;28;20149;-41
2022/05/13 05:16:39;;;;;;;;;;;;;;;22.02;54.13;100216.03;2081818;28;19916;-41
2022/05/13 05:17:39;;;;;;;;;;;;;;;22.02;54.12;100222.41;2077417;28;19947;-41
2022/05/13 05:18:40;;;;;;;;;;;;;;;22.02;54.09;100221.50;2086073;28;20026;-41
2022/05/13 05:19:40;;;;;;;;;;;;;;;22.00;54.08;100223.59;2085407;28;20371;-41
2022/05/13 05:20:41;;;;;;;;;;;;;;;22.01;54.02;100219.81;2084422;28;20772;-41
2022/05/13 05:21:42;;;;;;;;;;;;;;;22.02;54.27;100227.00;2080345;28;19967;-41
2022/05/13 05:22:46;;;;;;;;;;;;;;;22.01;54.25;100225.28;2084907;28;20480;-41
2022/05/13 05:23:48;;;;;;;;;;;;;;;22.00;54.34;100221.69;2085277;28;19948;-41
2022/05/13 05:24:49;;;;;;;;;;;;;;;22.00;53.91;100218.97;2085218;28;19923;-41